createdAt,value
2017-12-23T00:00:24.103Z,1028.15
2017-12-23T00:01:24.102Z,1028.17
2017-12-23T00:02:24.112Z,1028.13
2017-12-23T00:03:24.136Z,1028.12
2017-12-23T00:04:24.133Z,1028.09
2017-12-23T00:05:24.142Z,1028.07
2017-12-23T00:06:24.152Z,1028.08
2017-12-23T00:07:24.158Z,1028.08
2017-12-23T00:08:24.176Z,1028.11
2017-12-23T00:09:24.850Z,1028.11
2017-12-23T00:10:24.193Z,1028.11
2017-12-23T00:11:24.192Z,1028.04
2017-12-23T00:12:24.205Z,1027.99
2017-12-23T00:13:24.214Z,1027.97
2017-12-23T00:14:24.218Z,1027.90
2017-12-23T00:15:24.232Z,1027.85
2017-12-23T00:16:24.236Z,1027.78
2017-12-23T00:17:24.218Z,1027.79
2017-12-23T00:18:24.222Z,1027.76
2017-12-23T00:19:24.228Z,1027.73
2017-12-23T00:20:24.245Z,1027.73
2017-12-23T00:21:24.250Z,1027.74
2017-12-23T00:22:24.292Z,1027.71
2017-12-23T00:23:24.269Z,1027.74
2017-12-23T00:24:24.285Z,1027.71
2017-12-23T00:25:24.285Z,1027.73
2017-12-23T00:26:24.303Z,1027.76
2017-12-23T00:27:24.321Z,1027.74
2017-12-23T00:28:24.312Z,1027.74
2017-12-23T00:29:24.317Z,1027.79
2017-12-23T00:30:24.326Z,1027.74
2017-12-23T00:31:24.338Z,1027.73
2017-12-23T00:32:24.335Z,1027.68
2017-12-23T00:33:24.351Z,1027.63
2017-12-23T00:34:24.357Z,1027.64
2017-12-23T00:35:24.364Z,1027.63
2017-12-23T00:36:24.382Z,1027.60
2017-12-23T00:37:24.485Z,1027.61
2017-12-23T00:38:24.396Z,1027.68
2017-12-23T00:39:24.407Z,1027.64
2017-12-23T00:40:24.412Z,1027.61
2017-12-23T00:41:24.418Z,1027.61
2017-12-23T00:42:24.436Z,1027.59
2017-12-23T00:43:24.456Z,1027.56
2017-12-23T00:44:24.440Z,1027.50
2017-12-23T00:45:24.465Z,1027.52
2017-12-23T00:46:24.463Z,1027.49
2017-12-23T00:47:24.461Z,1027.44
2017-12-23T00:48:24.496Z,1027.42
2017-12-23T00:49:24.488Z,1027.44
2017-12-23T00:50:24.495Z,1027.43
2017-12-23T00:51:24.500Z,1027.44
2017-12-23T00:52:24.555Z,1027.45
2017-12-23T00:53:24.521Z,1027.43
2017-12-23T00:54:24.534Z,1027.41
2017-12-23T00:55:24.531Z,1027.37
2017-12-23T00:56:24.548Z,1027.31
2017-12-23T00:57:24.555Z,1027.30
2017-12-23T00:58:24.566Z,1027.31
2017-12-23T00:59:24.579Z,1027.32
2017-12-23T01:00:24.588Z,1027.35
2017-12-23T01:01:24.585Z,1027.36
2017-12-23T01:02:24.597Z,1027.31
2017-12-23T01:03:24.611Z,1027.32
2017-12-23T01:04:24.616Z,1027.28
2017-12-23T01:05:24.625Z,1027.23
2017-12-23T01:07:24.635Z,1027.18
2017-12-23T01:08:24.648Z,1027.13
2017-12-23T01:09:24.659Z,1027.07
2017-12-23T01:10:24.665Z,1027.08
2017-12-23T01:11:24.679Z,1027.10
2017-12-23T01:12:24.687Z,1027.08
2017-12-23T01:13:24.689Z,1027.04
2017-12-23T01:14:24.699Z,1027.00
2017-12-23T01:15:24.701Z,1026.95
2017-12-23T01:16:24.718Z,1026.93
2017-12-23T01:17:24.721Z,1026.91
2017-12-23T01:18:24.732Z,1026.91
2017-12-23T01:19:24.743Z,1026.92
2017-12-23T01:20:24.749Z,1026.92
2017-12-23T01:21:24.762Z,1026.87
2017-12-23T01:22:24.763Z,1026.88
2017-12-23T01:23:24.767Z,1026.88
2017-12-23T01:24:24.787Z,1026.89
2017-12-23T01:25:24.779Z,1026.87
2017-12-23T01:26:24.788Z,1026.88
2017-12-23T01:27:24.805Z,1026.95
2017-12-23T01:28:24.817Z,1026.94
2017-12-23T01:29:24.819Z,1026.97
2017-12-23T01:30:24.828Z,1026.87
2017-12-23T01:31:24.836Z,1026.84
2017-12-23T01:32:24.841Z,1026.83
2017-12-23T01:33:24.851Z,1026.81
2017-12-23T01:34:24.862Z,1026.85
2017-12-23T01:35:24.871Z,1026.83
2017-12-23T01:36:24.874Z,1026.80
2017-12-23T01:37:24.878Z,1026.77
2017-12-23T01:38:24.932Z,1026.80
2017-12-23T01:39:24.902Z,1026.74
2017-12-23T01:40:24.909Z,1026.67
2017-12-23T01:41:24.917Z,1026.66
2017-12-23T01:42:24.934Z,1026.62
2017-12-23T01:43:24.933Z,1026.63
2017-12-23T01:44:24.943Z,1026.53
2017-12-23T01:45:24.949Z,1026.52
2017-12-23T01:46:24.956Z,1026.58
2017-12-23T01:47:24.965Z,1026.59
2017-12-23T01:48:25.100Z,1026.54
2017-12-23T01:49:24.983Z,1026.56
2017-12-23T01:50:25.006Z,1026.57
2017-12-23T01:51:24.997Z,1026.56
2017-12-23T01:52:25.012Z,1026.53
2017-12-23T01:53:25.012Z,1026.55
2017-12-23T01:54:25.024Z,1026.56
2017-12-23T01:55:25.038Z,1026.57
2017-12-23T01:56:25.047Z,1026.56
2017-12-23T01:57:25.052Z,1026.56
2017-12-23T01:58:25.059Z,1026.55
2017-12-23T01:59:25.065Z,1026.55
2017-12-23T02:00:27.061Z,1026.52
2017-12-23T02:01:25.089Z,1026.46
2017-12-23T02:02:25.089Z,1026.50
2017-12-23T02:03:25.082Z,1026.51
2017-12-23T02:04:25.098Z,1026.51
2017-12-23T02:05:25.112Z,1026.56
2017-12-23T02:06:25.113Z,1026.58
2017-12-23T02:07:25.129Z,1026.59
2017-12-23T02:08:25.132Z,1026.61
2017-12-23T02:09:25.143Z,1026.59
2017-12-23T02:10:25.145Z,1026.59
2017-12-23T02:11:25.164Z,1026.63
2017-12-23T02:12:25.165Z,1026.61
2017-12-23T02:13:25.178Z,1026.60
2017-12-23T02:14:25.181Z,1026.56
2017-12-23T02:15:25.196Z,1026.56
2017-12-23T02:16:25.198Z,1026.55
2017-12-23T02:17:25.206Z,1026.53
2017-12-23T02:18:25.216Z,1026.55
2017-12-23T02:19:25.214Z,1026.46
2017-12-23T02:20:25.224Z,1026.51
2017-12-23T02:21:25.240Z,1026.49
2017-12-23T02:22:25.244Z,1026.48
2017-12-23T02:24:25.262Z,1026.47
2017-12-23T02:25:25.267Z,1026.46
2017-12-23T02:26:25.273Z,1026.51
2017-12-23T02:27:25.286Z,1026.52
2017-12-23T02:28:25.292Z,1026.54
2017-12-23T02:29:25.298Z,1026.55
2017-12-23T02:30:25.312Z,1026.51
2017-12-23T02:32:25.324Z,1026.50
2017-12-23T02:33:25.336Z,1026.49
2017-12-23T02:34:25.336Z,1026.45
2017-12-23T02:35:25.348Z,1026.42
2017-12-23T02:36:25.359Z,1026.31
2017-12-23T02:37:25.363Z,1026.19
2017-12-23T02:38:25.371Z,1026.16
2017-12-23T02:39:25.386Z,1026.09
2017-12-23T02:40:25.385Z,1026.00
2017-12-23T02:41:25.398Z,1025.98
2017-12-23T02:42:25.406Z,1026.00
2017-12-23T02:43:25.410Z,1025.96
2017-12-23T02:44:25.416Z,1025.99
2017-12-23T02:45:25.430Z,1025.95
2017-12-23T02:46:25.431Z,1025.96
2017-12-23T02:47:25.446Z,1025.98
2017-12-23T02:48:25.452Z,1025.96
2017-12-23T02:49:25.449Z,1025.99
2017-12-23T02:50:25.463Z,1026.01
2017-12-23T02:51:25.478Z,1026.05
2017-12-23T02:52:25.485Z,1026.02
2017-12-23T02:53:25.495Z,1026.03
2017-12-23T02:54:25.510Z,1026.08
2017-12-23T02:55:25.513Z,1026.01
2017-12-23T02:56:25.519Z,1025.98
2017-12-23T02:57:25.525Z,1025.95
2017-12-23T02:58:25.538Z,1025.94
2017-12-23T02:59:25.536Z,1025.87
2017-12-23T03:00:25.556Z,1025.90
2017-12-23T03:01:25.554Z,1025.93
2017-12-23T03:02:25.567Z,1025.93
2017-12-23T03:03:25.575Z,1025.96
2017-12-23T03:04:25.578Z,1025.90
2017-12-23T03:05:25.599Z,1025.94
2017-12-23T03:06:25.600Z,1025.92
2017-12-23T03:07:25.612Z,1025.86
2017-12-23T03:08:25.612Z,1025.88
2017-12-23T03:09:25.624Z,1025.86
2017-12-23T03:10:25.628Z,1025.86
2017-12-23T03:11:25.640Z,1025.82
2017-12-23T03:12:25.647Z,1025.80
2017-12-23T03:13:25.652Z,1025.80
2017-12-23T03:14:25.662Z,1025.85
2017-12-23T03:15:25.672Z,1025.84
2017-12-23T03:16:25.686Z,1025.83
2017-12-23T03:17:25.680Z,1025.87
2017-12-23T03:18:25.694Z,1025.89
2017-12-23T03:19:25.717Z,1025.90
2017-12-23T03:20:25.708Z,1025.92
2017-12-23T03:21:25.717Z,1026.00
2017-12-23T03:22:25.723Z,1025.92
2017-12-23T03:23:25.736Z,1025.97
2017-12-23T03:24:25.737Z,1025.98
2017-12-23T03:25:25.748Z,1025.93
2017-12-23T03:26:25.755Z,1025.93
2017-12-23T03:27:25.770Z,1025.88
2017-12-23T03:28:25.775Z,1025.84
2017-12-23T03:29:25.790Z,1025.84
2017-12-23T03:30:25.796Z,1025.77
2017-12-23T03:31:25.805Z,1025.80
2017-12-23T03:32:25.815Z,1025.78
2017-12-23T03:33:25.822Z,1025.79
2017-12-23T03:34:25.887Z,1025.76
2017-12-23T03:35:25.835Z,1025.74
2017-12-23T03:36:25.838Z,1025.74
2017-12-23T03:37:25.851Z,1025.75
2017-12-23T03:38:25.855Z,1025.75
2017-12-23T03:39:25.867Z,1025.77
2017-12-23T03:40:25.869Z,1025.79
2017-12-23T03:41:25.873Z,1025.77
2017-12-23T03:42:25.888Z,1025.81
2017-12-23T03:43:25.890Z,1025.79
2017-12-23T03:44:25.909Z,1025.88
2017-12-23T03:45:25.974Z,1025.82
2017-12-23T03:46:25.922Z,1025.86
2017-12-23T03:47:25.930Z,1025.87
2017-12-23T03:48:25.937Z,1025.85
2017-12-23T03:49:25.947Z,1025.85
2017-12-23T03:50:25.953Z,1025.85
2017-12-23T03:51:25.963Z,1025.86
2017-12-23T03:52:25.966Z,1025.80
2017-12-23T03:53:25.974Z,1025.81
2017-12-23T03:54:25.986Z,1025.81
2017-12-23T03:55:26.025Z,1025.78
2017-12-23T03:56:26.000Z,1025.77
2017-12-23T03:57:26.011Z,1025.76
2017-12-23T03:58:26.023Z,1025.78
2017-12-23T03:59:26.032Z,1025.80
2017-12-23T04:00:26.033Z,1025.84
2017-12-23T04:01:26.040Z,1025.78
2017-12-23T04:02:26.049Z,1025.81
2017-12-23T04:03:26.056Z,1025.81
2017-12-23T04:04:26.066Z,1025.79
2017-12-23T04:05:26.082Z,1025.82
2017-12-23T04:06:26.082Z,1025.82
2017-12-23T04:07:26.089Z,1025.82
2017-12-23T04:08:26.096Z,1025.81
2017-12-23T04:09:26.108Z,1025.80
2017-12-23T04:10:26.115Z,1025.82
2017-12-23T04:11:26.130Z,1025.81
2017-12-23T04:12:26.130Z,1025.81
2017-12-23T04:13:26.136Z,1025.80
2017-12-23T04:14:26.144Z,1025.72
2017-12-23T04:15:26.153Z,1025.73
2017-12-23T04:16:26.165Z,1025.75
2017-12-23T04:17:26.170Z,1025.65
2017-12-23T04:18:26.180Z,1025.64
2017-12-23T04:19:26.189Z,1025.69
2017-12-23T04:20:26.194Z,1025.64
2017-12-23T04:21:26.217Z,1025.66
2017-12-23T04:22:26.210Z,1025.65
2017-12-23T04:23:26.217Z,1025.64
2017-12-23T04:24:26.224Z,1025.65
2017-12-23T04:25:26.234Z,1025.67
2017-12-23T04:26:26.240Z,1025.66
2017-12-23T04:27:26.251Z,1025.71
2017-12-23T04:28:26.343Z,1025.69
2017-12-23T04:29:26.265Z,1025.70
2017-12-23T04:30:26.274Z,1025.71
2017-12-23T04:31:26.290Z,1025.70
2017-12-23T04:32:26.291Z,1025.68
2017-12-23T04:33:26.294Z,1025.63
2017-12-23T04:34:26.306Z,1025.67
2017-12-23T04:35:26.319Z,1025.64
2017-12-23T04:36:26.325Z,1025.63
2017-12-23T04:37:26.338Z,1025.64
2017-12-23T04:38:26.342Z,1025.67
2017-12-23T04:39:26.346Z,1025.62
2017-12-23T04:40:26.361Z,1025.59
2017-12-23T04:41:26.361Z,1025.54
2017-12-23T04:42:26.369Z,1025.55
2017-12-23T04:43:26.368Z,1025.56
2017-12-23T04:44:26.386Z,1025.53
2017-12-23T04:45:26.391Z,1025.52
2017-12-23T04:46:26.401Z,1025.51
2017-12-23T04:47:26.408Z,1025.55
2017-12-23T04:48:26.415Z,1025.47
2017-12-23T04:49:26.423Z,1025.50
2017-12-23T04:50:26.432Z,1025.48
2017-12-23T04:51:26.436Z,1025.52
2017-12-23T04:52:26.448Z,1025.50
2017-12-23T04:53:26.449Z,1025.49
2017-12-23T04:54:26.459Z,1025.46
2017-12-23T04:55:26.474Z,1025.38
2017-12-23T04:56:26.494Z,1025.40
2017-12-23T04:57:26.487Z,1025.40
2017-12-23T04:58:26.499Z,1025.39
2017-12-23T04:59:26.502Z,1025.36
2017-12-23T05:00:26.525Z,1025.39
2017-12-23T05:01:26.519Z,1025.40
2017-12-23T05:02:26.528Z,1025.36
2017-12-23T05:03:26.542Z,1025.34
2017-12-23T05:04:26.541Z,1025.35
2017-12-23T05:05:26.554Z,1025.29
2017-12-23T05:06:26.561Z,1025.34
2017-12-23T05:07:26.571Z,1025.25
2017-12-23T05:08:26.581Z,1025.31
2017-12-23T05:09:26.589Z,1025.31
2017-12-23T05:10:26.615Z,1025.27
2017-12-23T05:11:26.606Z,1025.29
2017-12-23T05:12:26.611Z,1025.27
2017-12-23T05:13:26.616Z,1025.28
2017-12-23T05:14:26.625Z,1025.16
2017-12-23T05:15:26.629Z,1025.14
2017-12-23T05:16:26.635Z,1025.24
2017-12-23T05:17:26.649Z,1025.22
2017-12-23T05:18:26.660Z,1025.31
2017-12-23T05:19:26.672Z,1025.26
2017-12-23T05:20:26.687Z,1025.21
2017-12-23T05:21:26.678Z,1025.17
2017-12-23T05:22:26.694Z,1025.19
2017-12-23T05:23:26.702Z,1025.12
2017-12-23T05:24:26.711Z,1025.12
2017-12-23T05:25:26.724Z,1025.11
2017-12-23T05:26:26.727Z,1025.12
2017-12-23T05:27:26.740Z,1025.04
2017-12-23T05:28:26.787Z,1025.10
2017-12-23T05:29:26.748Z,1025.02
2017-12-23T05:30:26.759Z,1025.07
2017-12-23T05:31:26.762Z,1025.05
2017-12-23T05:32:26.770Z,1024.94
2017-12-23T05:33:26.776Z,1025.00
2017-12-23T05:34:26.789Z,1025.08
2017-12-23T05:35:26.799Z,1024.94
2017-12-23T05:36:26.809Z,1024.96
2017-12-23T05:37:26.816Z,1024.95
2017-12-23T05:38:26.821Z,1024.92
2017-12-23T05:39:26.827Z,1024.91
2017-12-23T05:40:26.848Z,1024.98
2017-12-23T05:41:26.845Z,1024.94
2017-12-23T05:42:26.859Z,1024.99
2017-12-23T05:43:26.860Z,1025.01
2017-12-23T05:44:26.939Z,1025.10
2017-12-23T05:45:26.879Z,1025.01
2017-12-23T05:46:26.887Z,1025.03
2017-12-23T05:47:26.892Z,1025.03
2017-12-23T05:48:26.893Z,1025.01
2017-12-23T05:49:26.912Z,1024.99
2017-12-23T05:50:26.917Z,1025.02
2017-12-23T05:51:26.926Z,1025.00
2017-12-23T05:52:26.933Z,1024.95
2017-12-23T05:53:26.944Z,1024.96
2017-12-23T05:54:26.943Z,1025.01
2017-12-23T05:55:26.962Z,1024.94
2017-12-23T05:56:26.974Z,1024.92
2017-12-23T05:57:26.978Z,1024.94
2017-12-23T05:58:26.976Z,1024.93
2017-12-23T05:59:26.986Z,1024.93
2017-12-23T06:00:26.995Z,1025.03
2017-12-23T06:01:27.007Z,1025.03
2017-12-23T06:02:27.010Z,1025.00
2017-12-23T06:03:27.022Z,1025.02
2017-12-23T06:04:27.016Z,1025.00
2017-12-23T06:05:27.038Z,1024.99
2017-12-23T06:06:27.041Z,1025.00
2017-12-23T06:07:27.076Z,1024.93
2017-12-23T06:08:27.058Z,1024.93
2017-12-23T06:09:27.075Z,1024.94
2017-12-23T06:10:27.081Z,1024.92
2017-12-23T06:11:27.081Z,1024.92
2017-12-23T06:12:27.094Z,1024.87
2017-12-23T06:13:27.101Z,1024.89
2017-12-23T06:14:27.108Z,1024.89
2017-12-23T06:15:27.130Z,1024.94
2017-12-23T06:16:27.129Z,1024.85
2017-12-23T06:17:27.133Z,1024.92
2017-12-23T06:18:27.144Z,1024.84
2017-12-23T06:19:27.153Z,1024.95
2017-12-23T06:20:27.159Z,1024.83
2017-12-23T06:21:27.158Z,1024.90
2017-12-23T06:22:27.890Z,1024.84
2017-12-23T06:23:27.180Z,1024.73
2017-12-23T06:24:27.194Z,1024.88
2017-12-23T06:25:27.196Z,1024.82
2017-12-23T06:26:27.211Z,1024.79
2017-12-23T06:27:27.210Z,1024.82
2017-12-23T06:28:27.215Z,1024.78
2017-12-23T06:29:27.224Z,1024.71
2017-12-23T06:30:27.230Z,1024.78
2017-12-23T06:31:27.234Z,1024.75
2017-12-23T06:32:27.242Z,1024.75
2017-12-23T06:33:27.255Z,1024.75
2017-12-23T06:34:27.262Z,1024.77
2017-12-23T06:35:27.280Z,1024.72
2017-12-23T06:36:27.281Z,1024.74
2017-12-23T06:37:27.290Z,1024.71
2017-12-23T06:38:27.291Z,1024.83
2017-12-23T06:39:27.302Z,1024.83
2017-12-23T06:40:27.321Z,1024.83
2017-12-23T06:41:27.316Z,1024.87
2017-12-23T06:42:27.325Z,1024.79
2017-12-23T06:43:27.331Z,1024.87
2017-12-23T06:44:27.335Z,1024.89
2017-12-23T06:45:27.354Z,1024.86
2017-12-23T06:46:27.361Z,1024.89
2017-12-23T06:47:27.361Z,1024.98
2017-12-23T06:48:27.373Z,1024.99
2017-12-23T06:49:27.390Z,1024.94
2017-12-23T06:50:27.393Z,1024.96
2017-12-23T06:51:27.399Z,1024.89
2017-12-23T06:52:27.396Z,1024.91
2017-12-23T06:53:27.413Z,1024.89
2017-12-23T06:54:27.413Z,1024.90
2017-12-23T06:55:27.521Z,1024.84
2017-12-23T06:56:27.441Z,1024.89
2017-12-23T06:57:27.434Z,1024.90
2017-12-23T06:58:27.457Z,1024.82
2017-12-23T06:59:27.460Z,1024.90
2017-12-23T07:00:27.468Z,1024.83
2017-12-23T07:01:27.475Z,1024.84
2017-12-23T07:02:27.496Z,1024.83
2017-12-23T07:03:27.490Z,1024.86
2017-12-23T07:04:27.501Z,1024.90
2017-12-23T07:05:27.508Z,1024.92
2017-12-23T07:06:27.516Z,1024.82
2017-12-23T07:07:27.517Z,1024.84
2017-12-23T07:08:27.530Z,1024.87
2017-12-23T07:09:27.546Z,1024.79
2017-12-23T07:10:27.545Z,1024.92
2017-12-23T07:11:27.554Z,1024.90
2017-12-23T07:12:27.561Z,1024.90
2017-12-23T07:13:27.568Z,1024.92
2017-12-23T07:14:27.573Z,1024.86
2017-12-23T07:15:27.587Z,1024.90
2017-12-23T07:16:27.598Z,1024.90
2017-12-23T07:17:27.600Z,1024.89
2017-12-23T07:18:27.601Z,1024.90
2017-12-23T07:19:27.616Z,1024.89
2017-12-23T07:20:27.626Z,1024.90
2017-12-23T07:21:27.635Z,1024.92
2017-12-23T07:22:27.641Z,1024.88
2017-12-23T07:23:27.667Z,1024.86
2017-12-23T07:24:27.655Z,1024.84
2017-12-23T07:25:27.660Z,1024.84
2017-12-23T07:26:27.670Z,1024.87
2017-12-23T07:27:27.683Z,1024.81
2017-12-23T07:28:27.686Z,1024.75
2017-12-23T07:29:27.695Z,1024.87
2017-12-23T07:30:27.699Z,1024.81
2017-12-23T07:31:27.713Z,1024.79
2017-12-23T07:32:27.715Z,1024.76
2017-12-23T07:33:27.712Z,1024.82
2017-12-23T07:34:27.733Z,1024.90
2017-12-23T07:35:27.740Z,1024.77
2017-12-23T07:36:27.750Z,1024.86
2017-12-23T07:37:27.755Z,1024.84
2017-12-23T07:38:27.762Z,1024.88
2017-12-23T07:39:27.770Z,1024.84
2017-12-23T07:40:27.781Z,1024.79
2017-12-23T07:41:27.782Z,1024.75
2017-12-23T07:42:27.793Z,1024.74
2017-12-23T07:43:27.802Z,1024.75
2017-12-23T07:44:27.808Z,1024.77
2017-12-23T07:45:27.818Z,1024.78
2017-12-23T07:46:27.826Z,1024.80
2017-12-23T07:47:27.830Z,1024.81
2017-12-23T07:48:27.837Z,1024.74
2017-12-23T07:49:27.847Z,1024.74
2017-12-23T07:50:27.856Z,1024.78
2017-12-23T07:51:27.862Z,1024.79
2017-12-23T07:52:27.868Z,1024.80
2017-12-23T07:53:27.875Z,1024.82
2017-12-23T07:54:27.889Z,1024.80
2017-12-23T07:55:27.907Z,1024.83
2017-12-23T07:56:27.919Z,1024.85
2017-12-23T07:57:27.909Z,1024.89
2017-12-23T07:58:27.913Z,1024.92
2017-12-23T07:59:27.929Z,1024.91
2017-12-23T08:00:27.940Z,1024.87
2017-12-23T08:01:28.007Z,1024.91
2017-12-23T08:02:27.959Z,1024.91
2017-12-23T08:03:27.955Z,1024.91
2017-12-23T08:05:27.968Z,1024.97
2017-12-23T08:06:27.981Z,1024.97
2017-12-23T08:07:27.982Z,1024.84
2017-12-23T08:08:27.998Z,1024.95
2017-12-23T08:09:28.006Z,1024.94
2017-12-23T08:10:28.016Z,1024.91
2017-12-23T08:11:28.009Z,1024.87
2017-12-23T08:12:28.035Z,1024.91
2017-12-23T08:13:28.044Z,1024.93
2017-12-23T08:14:28.041Z,1024.89
2017-12-23T08:15:28.113Z,1024.88
2017-12-23T08:16:28.058Z,1024.86
2017-12-23T08:17:28.073Z,1024.87
2017-12-23T08:18:28.077Z,1024.91
2017-12-23T08:19:28.083Z,1024.82
2017-12-23T08:20:28.091Z,1024.83
2017-12-23T08:21:28.098Z,1024.85
2017-12-23T08:22:28.106Z,1024.81
2017-12-23T08:23:28.114Z,1024.80
2017-12-23T08:24:28.117Z,1024.85
2017-12-23T08:25:28.127Z,1024.87
2017-12-23T08:26:28.132Z,1024.78
2017-12-23T08:27:28.145Z,1024.80
2017-12-23T08:28:28.149Z,1024.73
2017-12-23T08:29:28.159Z,1024.73
2017-12-23T08:30:28.165Z,1024.74
2017-12-23T08:31:28.166Z,1024.71
2017-12-23T08:32:28.181Z,1024.73
2017-12-23T08:33:28.187Z,1024.67
2017-12-23T08:34:28.296Z,1024.66
2017-12-23T08:35:28.207Z,1024.69
2017-12-23T08:36:28.215Z,1024.73
2017-12-23T08:37:28.218Z,1024.71
2017-12-23T08:38:28.238Z,1024.75
2017-12-23T08:39:28.239Z,1024.80
2017-12-23T08:40:28.244Z,1024.78
2017-12-23T08:41:28.257Z,1024.81
2017-12-23T08:42:28.260Z,1024.79
2017-12-23T08:43:28.280Z,1024.83
2017-12-23T08:44:28.278Z,1024.84
2017-12-23T08:45:28.291Z,1024.78
2017-12-23T08:46:28.295Z,1024.80
2017-12-23T08:47:28.305Z,1024.74
2017-12-23T08:48:28.308Z,1024.78
2017-12-23T08:49:28.308Z,1024.80
2017-12-23T08:50:28.333Z,1024.79
2017-12-23T08:51:28.337Z,1024.77
2017-12-23T08:52:28.344Z,1024.76
2017-12-23T08:53:28.350Z,1024.75
2017-12-23T08:54:28.362Z,1024.73
2017-12-23T08:55:28.366Z,1024.66
2017-12-23T08:56:28.371Z,1024.65
2017-12-23T08:57:28.382Z,1024.61
2017-12-23T08:58:28.379Z,1024.54
2017-12-23T08:59:28.398Z,1024.51
2017-12-23T09:00:28.407Z,1024.54
2017-12-23T09:01:28.415Z,1024.48
2017-12-23T09:02:28.448Z,1024.45
2017-12-23T09:03:28.432Z,1024.47
2017-12-23T09:04:28.425Z,1024.42
2017-12-23T09:05:28.442Z,1024.40
2017-12-23T09:06:28.462Z,1024.40
2017-12-23T09:07:28.471Z,1024.38
2017-12-23T09:08:28.468Z,1024.40
2017-12-23T09:09:28.484Z,1024.41
2017-12-23T09:10:28.487Z,1024.44
2017-12-23T09:11:28.495Z,1024.46
2017-12-23T09:12:29.422Z,1024.46
2017-12-23T09:13:28.508Z,1024.45
2017-12-23T09:14:28.519Z,1024.46
2017-12-23T09:15:28.524Z,1024.44
2017-12-23T09:16:28.537Z,1024.43
2017-12-23T09:17:28.542Z,1024.45
2017-12-23T09:18:28.547Z,1024.49
2017-12-23T09:19:28.567Z,1024.45
2017-12-23T09:20:28.565Z,1024.36
2017-12-23T09:21:28.574Z,1024.45
2017-12-23T09:22:28.584Z,1024.45
2017-12-23T09:23:28.592Z,1024.43
2017-12-23T09:24:28.600Z,1024.47
2017-12-23T09:25:28.617Z,1024.44
2017-12-23T09:26:28.616Z,1024.53
2017-12-23T09:27:28.625Z,1024.40
2017-12-23T09:28:28.627Z,1024.51
2017-12-23T09:29:28.639Z,1024.51
2017-12-23T09:30:28.648Z,1024.44
2017-12-23T09:31:28.655Z,1024.58
2017-12-23T09:32:28.668Z,1024.49
2017-12-23T09:33:28.674Z,1024.56
2017-12-23T09:34:28.677Z,1024.51
2017-12-23T09:35:28.749Z,1024.61
2017-12-23T09:36:28.700Z,1024.58
2017-12-23T09:37:28.697Z,1024.60
2017-12-23T09:38:28.710Z,1024.63
2017-12-23T09:39:28.720Z,1024.59
2017-12-23T09:40:28.753Z,1024.60
2017-12-23T09:41:28.742Z,1024.62
2017-12-23T09:42:28.752Z,1024.70
2017-12-23T09:43:28.748Z,1024.67
2017-12-23T09:44:28.762Z,1024.66
2017-12-23T09:45:28.770Z,1024.68
2017-12-23T09:46:28.777Z,1024.58
2017-12-23T09:47:28.799Z,1024.65
2017-12-23T09:48:28.793Z,1024.67
2017-12-23T09:49:28.803Z,1024.62
2017-12-23T09:50:28.905Z,1024.58
2017-12-23T09:51:28.830Z,1024.63
2017-12-23T09:52:28.832Z,1024.68
2017-12-23T09:53:28.839Z,1024.66
2017-12-23T09:54:28.840Z,1024.73
2017-12-23T09:55:28.851Z,1024.69
2017-12-23T09:56:28.866Z,1024.66
2017-12-23T09:57:28.873Z,1024.65
2017-12-23T09:58:28.877Z,1024.64
2017-12-23T09:59:28.887Z,1024.68
2017-12-23T10:00:28.895Z,1024.66
2017-12-23T10:01:28.906Z,1024.73
2017-12-23T10:02:28.909Z,1024.71
2017-12-23T10:03:28.911Z,1024.71
2017-12-23T10:04:28.929Z,1024.70
2017-12-23T10:05:28.933Z,1024.65
2017-12-23T10:06:28.951Z,1024.67
2017-12-23T10:07:28.966Z,1024.67
2017-12-23T10:08:28.966Z,1024.59
2017-12-23T10:09:28.968Z,1024.59
2017-12-23T10:10:28.973Z,1024.58
2017-12-23T10:12:28.995Z,1024.58
2017-12-23T10:13:29.061Z,1024.66
2017-12-23T10:14:29.015Z,1024.64
2017-12-23T10:15:29.034Z,1024.60
2017-12-23T10:16:29.026Z,1024.62
2017-12-23T10:17:29.042Z,1024.59
2017-12-23T10:18:29.047Z,1024.59
2017-12-23T10:19:29.051Z,1024.63
2017-12-23T10:20:29.062Z,1024.52
2017-12-23T10:21:29.077Z,1024.47
2017-12-23T10:22:29.078Z,1024.49
2017-12-23T10:23:29.074Z,1024.69
2017-12-23T10:25:29.119Z,1024.37
2017-12-23T10:27:29.123Z,1024.34
2017-12-23T10:28:29.138Z,1024.46
2017-12-23T10:29:29.144Z,1024.50
2017-12-23T10:30:29.147Z,1024.33
2017-12-23T10:31:29.162Z,1024.25
2017-12-23T10:32:29.161Z,1024.28
2017-12-23T10:33:29.163Z,1024.18
2017-12-23T10:34:29.172Z,1024.27
2017-12-23T10:35:29.196Z,1024.26
2017-12-23T10:36:29.199Z,1024.36
2017-12-23T10:37:29.214Z,1024.36
2017-12-23T10:38:29.209Z,1024.37
2017-12-23T10:39:29.227Z,1024.37
2017-12-23T10:40:29.233Z,1024.23
2017-12-23T10:41:29.250Z,1024.29
2017-12-23T10:42:29.243Z,1024.37
2017-12-23T10:43:29.253Z,1024.31
2017-12-23T10:44:29.262Z,1024.33
2017-12-23T10:45:29.269Z,1024.28
2017-12-23T10:46:29.278Z,1024.28
2017-12-23T10:47:29.282Z,1024.30
2017-12-23T10:48:29.293Z,1024.39
2017-12-23T10:49:29.306Z,1024.31
2017-12-23T10:50:29.310Z,1024.36
2017-12-23T10:51:29.408Z,1024.37
2017-12-23T10:52:29.324Z,1024.30
2017-12-23T10:53:29.332Z,1024.44
2017-12-23T10:54:29.351Z,1024.30
2017-12-23T10:55:29.354Z,1024.33
2017-12-23T10:56:29.361Z,1024.33
2017-12-23T10:57:29.373Z,1024.34
2017-12-23T10:58:29.376Z,1024.33
2017-12-23T10:59:29.389Z,1024.36
2017-12-23T11:00:29.395Z,1024.38
2017-12-23T11:01:29.398Z,1024.43
2017-12-23T11:02:29.412Z,1024.43
2017-12-23T11:03:29.408Z,1024.50
2017-12-23T11:04:29.435Z,1024.41
2017-12-23T11:05:29.443Z,1024.42
2017-12-23T11:06:29.443Z,1024.42
2017-12-23T11:07:29.453Z,1024.42
2017-12-23T11:08:29.463Z,1024.48
2017-12-23T11:09:29.470Z,1024.33
2017-12-23T11:10:29.469Z,1024.38
2017-12-23T11:11:29.487Z,1024.40
2017-12-23T11:12:29.494Z,1024.42
2017-12-23T11:13:29.503Z,1024.34
2017-12-23T11:14:29.527Z,1024.36
2017-12-23T11:15:29.536Z,1024.38
2017-12-23T11:16:29.528Z,1024.31
2017-12-23T11:17:29.541Z,1024.35
2017-12-23T11:18:29.549Z,1024.34
2017-12-23T11:19:29.551Z,1024.33
2017-12-23T11:20:29.564Z,1024.38
2017-12-23T11:21:29.572Z,1024.29
2017-12-23T11:22:29.578Z,1024.23
2017-12-23T11:23:29.591Z,1024.28
2017-12-23T11:24:29.607Z,1024.23
2017-12-23T11:25:29.620Z,1024.13
2017-12-23T11:26:29.611Z,1024.26
2017-12-23T11:27:29.629Z,1024.21
2017-12-23T11:28:29.646Z,1024.13
2017-12-23T11:29:29.688Z,1024.04
2017-12-23T11:30:29.654Z,1024.01
2017-12-23T11:31:29.657Z,1023.99
2017-12-23T11:32:29.670Z,1024.02
2017-12-23T11:33:29.672Z,1024.02
2017-12-23T11:34:29.683Z,1023.99
2017-12-23T11:35:29.692Z,1023.93
2017-12-23T11:36:29.699Z,1023.98
2017-12-23T11:37:29.708Z,1023.96
2017-12-23T11:38:29.729Z,1023.95
2017-12-23T11:39:29.792Z,1023.94
2017-12-23T11:40:29.733Z,1023.92
2017-12-23T11:41:29.741Z,1023.88
2017-12-23T11:42:29.752Z,1023.90
2017-12-23T11:43:29.755Z,1023.91
2017-12-23T11:44:29.767Z,1023.90
2017-12-23T11:45:29.787Z,1023.82
2017-12-23T11:46:29.788Z,1023.80
2017-12-23T11:47:29.786Z,1023.80
2017-12-23T11:48:29.801Z,1023.74
2017-12-23T11:49:29.809Z,1023.75
2017-12-23T11:50:29.816Z,1023.83
2017-12-23T11:51:29.828Z,1023.68
2017-12-23T11:52:29.827Z,1023.69
2017-12-23T11:53:29.841Z,1023.66
2017-12-23T11:54:29.854Z,1023.84
2017-12-23T11:55:29.867Z,1023.78
2017-12-23T11:56:29.871Z,1023.71
2017-12-23T11:57:29.878Z,1023.69
2017-12-23T11:58:29.886Z,1023.62
2017-12-23T11:59:29.894Z,1023.61
2017-12-23T12:00:29.900Z,1023.70
2017-12-23T12:01:29.911Z,1023.57
2017-12-23T12:02:29.948Z,1023.53
2017-12-23T12:03:29.929Z,1023.56
2017-12-23T12:04:29.995Z,1023.55
2017-12-23T12:05:29.948Z,1023.52
2017-12-23T12:06:29.952Z,1023.52
2017-12-23T12:07:29.972Z,1023.50
2017-12-23T12:08:29.970Z,1023.53
2017-12-23T12:09:29.981Z,1023.47
2017-12-23T12:10:29.987Z,1023.45
2017-12-23T12:11:29.996Z,1023.44
2017-12-23T12:12:30.004Z,1023.43